Terminal Aerodrome Forecast
Issued by NWS

Home | Current Version | Previous Version | Graphics & Text | Print | Product List | Glossary On
Versions: 1 2 3 4 5 6 7 8 9 10 11 12 13 14 15 16 17 18 19 20 21 22 23 24 25 26 27 28 29 30 31 32 33 34 35 36 37 38 39 40 41 42 43 44 45 46 47 48 49 50
000
FTUS43 KLOT 161131
TAFGYY
TAF
KGYY 161131Z 1612/1712 25012KT 4SM -SN BKN012 OVC025
      TEMPO 1612/1616 1 1/2SM -SN
     FM161600 28012KT 4SM -SN BKN015
      TEMPO 1616/1620 3/4SM -SN
     FM162000 31013KT P6SM VCSH BKN018
     FM162300 29008KT P6SM BKN035
     FM170600 27008KT P6SM FEW007 SCT120 BKN180=

USA.gov is the U.S. government's official web portal to all federal, state and local government web resources and services.